sensor_id;sensor_type;location;lat;lon;timestamp;temperature;humidity
36548;DHT22;22551;52.206;4.856;2022-08-19T00:02:25;17.70;99.90
36548;DHT22;22551;52.206;4.856;2022-08-19T00:07:29;17.70;99.90
36548;DHT22;22551;52.206;4.856;2022-08-19T00:12:31;17.60;99.90
36548;DHT22;22551;52.206;4.856;2022-08-19T00:17:34;17.60;99.90
36548;DHT22;22551;52.206;4.856;2022-08-19T00:22:37;17.60;99.90
36548;DHT22;22551;52.206;4.856;2022-08-19T00:27:41;17.60;99.90
36548;DHT22;22551;52.206;4.856;2022-08-19T00:32:43;17.60;99.90
36548;DHT22;22551;52.206;4.856;2022-08-19T00:37:47;17.60;99.90
36548;DHT22;22551;52.206;4.856;2022-08-19T00:42:50;17.50;99.90
36548;DHT22;22551;52.206;4.856;2022-08-19T00:47:54;17.50;99.90
36548;DHT22;22551;52.206;4.856;2022-08-19T00:52:58;17.50;99.90
36548;DHT22;22551;52.206;4.856;2022-08-19T00:58:06;17.50;99.90
36548;DHT22;22551;52.206;4.856;2022-08-19T01:03:13;17.50;99.90
36548;DHT22;22551;52.206;4.856;2022-08-19T01:08:18;17.40;99.90
36548;DHT22;22551;52.206;4.856;2022-08-19T01:13:22;17.40;99.90
36548;DHT22;22551;52.206;4.856;2022-08-19T01:18:26;17.40;99.90
36548;DHT22;22551;52.206;4.856;2022-08-19T01:23:31;17.30;99.90
36548;DHT22;22551;52.206;4.856;2022-08-19T01:28:45;17.30;99.90
36548;DHT22;22551;52.206;4.856;2022-08-19T01:33:49;17.20;99.90
36548;DHT22;22551;52.206;4.856;2022-08-19T01:38:54;17.20;99.90
36548;DHT22;22551;52.206;4.856;2022-08-19T01:43:56;17.20;99.90
36548;DHT22;22551;52.206;4.856;2022-08-19T01:48:59;17.10;99.90
36548;DHT22;22551;52.206;4.856;2022-08-19T01:54:06;17.10;99.90
36548;DHT22;22551;52.206;4.856;2022-08-19T01:59:13;17.10;99.90
36548;DHT22;22551;52.206;4.856;2022-08-19T02:04:17;17.10;99.90
36548;DHT22;22551;52.206;4.856;2022-08-19T02:09:21;17.00;99.90
36548;DHT22;22551;52.206;4.856;2022-08-19T02:14:23;17.00;99.90
36548;DHT22;22551;52.206;4.856;2022-08-19T02:19:25;17.00;99.90
36548;DHT22;22551;52.206;4.856;2022-08-19T02:24:29;17.10;99.90
36548;DHT22;22551;52.206;4.856;2022-08-19T02:29:31;17.00;99.90
36548;DHT22;22551;52.206;4.856;2022-08-19T02:34:34;17.00;99.90
36548;DHT22;22551;52.206;4.856;2022-08-19T02:39:37;17.00;99.90
36548;DHT22;22551;52.206;4.856;2022-08-19T02:44:39;16.90;99.90
36548;DHT22;22551;52.206;4.856;2022-08-19T02:49:41;16.80;99.90
36548;DHT22;22551;52.206;4.856;2022-08-19T02:54:45;16.90;99.90
36548;DHT22;22551;52.206;4.856;2022-08-19T02:59:47;16.90;99.90
36548;DHT22;22551;52.206;4.856;2022-08-19T03:04:50;16.90;99.90
36548;DHT22;22551;52.206;4.856;2022-08-19T03:09:54;16.80;99.90
36548;DHT22;22551;52.206;4.856;2022-08-19T03:14:56;16.90;99.90
36548;DHT22;22551;52.206;4.856;2022-08-19T03:19:58;16.80;99.90
36548;DHT22;22551;52.206;4.856;2022-08-19T03:25:02;16.80;99.90
36548;DHT22;22551;52.206;4.856;2022-08-19T03:30:05;16.80;99.90
36548;DHT22;22551;52.206;4.856;2022-08-19T03:35:08;16.70;99.90
36548;DHT22;22551;52.206;4.856;2022-08-19T03:40:11;16.70;99.90
36548;DHT22;22551;52.206;4.856;2022-08-19T03:45:13;16.70;99.90
36548;DHT22;22551;52.206;4.856;2022-08-19T03:50:16;16.60;99.90
36548;DHT22;22551;52.206;4.856;2022-08-19T03:55:21;16.60;99.90
36548;DHT22;22551;52.206;4.856;2022-08-19T04:00:23;16.50;99.90
36548;DHT22;22551;52.206;4.856;2022-08-19T04:05:26;16.60;99.90
36548;DHT22;22551;52.206;4.856;2022-08-19T04:10:31;16.60;99.90
36548;DHT22;22551;52.206;4.856;2022-08-19T04:15:40;16.50;99.90
36548;DHT22;22551;52.206;4.856;2022-08-19T04:20:44;16.50;99.90
36548;DHT22;22551;52.206;4.856;2022-08-19T04:25:48;16.50;99.90
36548;DHT22;22551;52.206;4.856;2022-08-19T04:30:52;16.40;99.90
36548;DHT22;22551;52.206;4.856;2022-08-19T04:35:55;16.40;99.90
36548;DHT22;22551;52.206;4.856;2022-08-19T04:41:01;16.40;99.90
36548;DHT22;22551;52.206;4.856;2022-08-19T04:46:22;16.40;99.90
36548;DHT22;22551;52.206;4.856;2022-08-19T04:51:24;16.30;99.90
36548;DHT22;22551;52.206;4.856;2022-08-19T04:56:28;16.30;99.90
36548;DHT22;22551;52.206;4.856;2022-08-19T05:01:32;16.30;99.90
36548;DHT22;22551;52.206;4.856;2022-08-19T05:06:38;16.30;99.90
36548;DHT22;22551;52.206;4.856;2022-08-19T05:11:42;16.40;99.90
36548;DHT22;22551;52.206;4.856;2022-08-19T05:16:45;16.40;99.90
36548;DHT22;22551;52.206;4.856;2022-08-19T05:21:47;16.50;99.90
36548;DHT22;22551;52.206;4.856;2022-08-19T05:27:07;16.60;99.90
36548;DHT22;22551;52.206;4.856;2022-08-19T05:32:10;16.70;99.90
36548;DHT22;22551;52.206;4.856;2022-08-19T05:37:12;16.90;99.90
36548;DHT22;22551;52.206;4.856;2022-08-19T05:42:15;17.10;99.90
36548;DHT22;22551;52.206;4.856;2022-08-19T05:47:20;17.20;99.90
36548;DHT22;22551;52.206;4.856;2022-08-19T05:52:23;17.40;99.90
36548;DHT22;22551;52.206;4.856;2022-08-19T05:57:27;17.40;99.90
36548;DHT22;22551;52.206;4.856;2022-08-19T06:02:29;17.60;99.90
36548;DHT22;22551;52.206;4.856;2022-08-19T06:07:31;17.80;99.90
36548;DHT22;22551;52.206;4.856;2022-08-19T06:12:36;18.00;99.90
36548;DHT22;22551;52.206;4.856;2022-08-19T06:17:39;18.10;99.90
36548;DHT22;22551;52.206;4.856;2022-08-19T06:22:43;18.30;99.90
36548;DHT22;22551;52.206;4.856;2022-08-19T06:27:47;18.40;99.90
36548;DHT22;22551;52.206;4.856;2022-08-19T06:32:49;18.50;99.90
36548;DHT22;22551;52.206;4.856;2022-08-19T06:37:52;18.60;99.90
36548;DHT22;22551;52.206;4.856;2022-08-19T06:42:55;18.80;99.90
36548;DHT22;22551;52.206;4.856;2022-08-19T06:47:59;18.90;99.90
36548;DHT22;22551;52.206;4.856;2022-08-19T06:53:02;19.00;99.90
36548;DHT22;22551;52.206;4.856;2022-08-19T06:58:07;19.20;99.90
36548;DHT22;22551;52.206;4.856;2022-08-19T07:03:09;19.30;99.90
36548;DHT22;22551;52.206;4.856;2022-08-19T07:08:12;19.50;99.90
36548;DHT22;22551;52.206;4.856;2022-08-19T07:13:15;19.60;99.90
36548;DHT22;22551;52.206;4.856;2022-08-19T07:18:18;19.80;99.90
36548;DHT22;22551;52.206;4.856;2022-08-19T07:23:20;20.10;99.90
36548;DHT22;22551;52.206;4.856;2022-08-19T07:28:24;20.30;99.90
36548;DHT22;22551;52.206;4.856;2022-08-19T07:33:26;20.40;99.90
36548;DHT22;22551;52.206;4.856;2022-08-19T07:38:30;20.70;99.90
36548;DHT22;22551;52.206;4.856;2022-08-19T07:43:35;20.90;99.90
36548;DHT22;22551;52.206;4.856;2022-08-19T07:48:37;21.00;99.90
36548;DHT22;22551;52.206;4.856;2022-08-19T07:53:39;21.20;99.90
36548;DHT22;22551;52.206;4.856;2022-08-19T07:58:45;21.50;99.90
36548;DHT22;22551;52.206;4.856;2022-08-19T08:03:49;21.60;99.90
36548;DHT22;22551;52.206;4.856;2022-08-19T08:09:11;21.80;99.90
36548;DHT22;22551;52.206;4.856;2022-08-19T08:14:21;21.90;99.90
36548;DHT22;22551;52.206;4.856;2022-08-19T08:19:26;21.90;99.90
36548;DHT22;22551;52.206;4.856;2022-08-19T08:24:30;22.10;99.90
36548;DHT22;22551;52.206;4.856;2022-08-19T08:29:33;22.20;99.90
36548;DHT22;22551;52.206;4.856;2022-08-19T08:34:41;22.90;99.90
36548;DHT22;22551;52.206;4.856;2022-08-19T08:39:44;23.00;99.90
36548;DHT22;22551;52.206;4.856;2022-08-19T08:44:53;22.80;99.90
36548;DHT22;22551;52.206;4.856;2022-08-19T08:50:02;23.30;99.90
36548;DHT22;22551;52.206;4.856;2022-08-19T08:55:10;23.60;99.90
36548;DHT22;22551;52.206;4.856;2022-08-19T09:00:19;24.10;99.90
36548;DHT22;22551;52.206;4.856;2022-08-19T09:05:34;24.50;99.90
36548;DHT22;22551;52.206;4.856;2022-08-19T09:10:44;24.30;99.90
36548;DHT22;22551;52.206;4.856;2022-08-19T09:15:56;24.40;99.90
36548;DHT22;22551;52.206;4.856;2022-08-19T09:21:01;24.60;99.90
36548;DHT22;22551;52.206;4.856;2022-08-19T09:26:07;24.30;99.90
36548;DHT22;22551;52.206;4.856;2022-08-19T09:31:13;23.90;99.90
36548;DHT22;22551;52.206;4.856;2022-08-19T09:36:19;24.70;99.90
36548;DHT22;22551;52.206;4.856;2022-08-19T09:41:27;25.80;99.90
36548;DHT22;22551;52.206;4.856;2022-08-19T09:46:31;25.50;99.90
36548;DHT22;22551;52.206;4.856;2022-08-19T09:51:33;25.70;99.90
36548;DHT22;22551;52.206;4.856;2022-08-19T09:56:36;25.70;99.90
36548;DHT22;22551;52.206;4.856;2022-08-19T10:01:39;25.90;99.90
36548;DHT22;22551;52.206;4.856;2022-08-19T10:06:42;26.00;99.90
36548;DHT22;22551;52.206;4.856;2022-08-19T10:11:45;25.30;99.90
36548;DHT22;22551;52.206;4.856;2022-08-19T10:16:49;24.60;99.90
36548;DHT22;22551;52.206;4.856;2022-08-19T10:21:52;24.70;99.90
36548;DHT22;22551;52.206;4.856;2022-08-19T10:26:55;24.20;99.90
36548;DHT22;22551;52.206;4.856;2022-08-19T10:32:00;24.30;99.90
36548;DHT22;22551;52.206;4.856;2022-08-19T10:37:04;23.70;99.90
36548;DHT22;22551;52.206;4.856;2022-08-19T10:42:07;23.40;99.90
36548;DHT22;22551;52.206;4.856;2022-08-19T10:47:12;23.10;99.90
36548;DHT22;22551;52.206;4.856;2022-08-19T10:52:14;23.40;99.90
36548;DHT22;22551;52.206;4.856;2022-08-19T10:57:34;23.80;99.90
36548;DHT22;22551;52.206;4.856;2022-08-19T11:02:38;24.20;99.90
36548;DHT22;22551;52.206;4.856;2022-08-19T11:07:42;24.10;99.90
36548;DHT22;22551;52.206;4.856;2022-08-19T11:12:44;23.60;99.90
36548;DHT22;22551;52.206;4.856;2022-08-19T11:17:51;23.30;99.90
36548;DHT22;22551;52.206;4.856;2022-08-19T11:22:54;23.20;99.90
36548;DHT22;22551;52.206;4.856;2022-08-19T11:27:56;23.10;99.90
36548;DHT22;22551;52.206;4.856;2022-08-19T11:33:00;23.10;99.90
36548;DHT22;22551;52.206;4.856;2022-08-19T11:38:03;23.50;99.90
36548;DHT22;22551;52.206;4.856;2022-08-19T11:43:05;23.20;99.90
36548;DHT22;22551;52.206;4.856;2022-08-19T11:48:09;22.90;99.90
36548;DHT22;22551;52.206;4.856;2022-08-19T11:53:11;22.60;99.90
36548;DHT22;22551;52.206;4.856;2022-08-19T11:58:15;22.80;99.90
36548;DHT22;22551;52.206;4.856;2022-08-19T12:03:20;22.90;99.90
36548;DHT22;22551;52.206;4.856;2022-08-19T12:08:22;23.10;99.90
36548;DHT22;22551;52.206;4.856;2022-08-19T12:13:24;23.10;99.90
36548;DHT22;22551;52.206;4.856;2022-08-19T12:18:27;23.10;99.90
36548;DHT22;22551;52.206;4.856;2022-08-19T12:23:30;23.30;99.90
36548;DHT22;22551;52.206;4.856;2022-08-19T12:28:32;23.10;99.90
36548;DHT22;22551;52.206;4.856;2022-08-19T12:33:35;23.30;99.90
36548;DHT22;22551;52.206;4.856;2022-08-19T12:38:38;23.60;99.90
36548;DHT22;22551;52.206;4.856;2022-08-19T12:43:40;23.80;99.90
36548;DHT22;22551;52.206;4.856;2022-08-19T12:48:44;23.60;99.90
36548;DHT22;22551;52.206;4.856;2022-08-19T12:53:48;23.90;99.90
36548;DHT22;22551;52.206;4.856;2022-08-19T12:58:50;24.00;99.90
36548;DHT22;22551;52.206;4.856;2022-08-19T13:03:54;24.10;99.90
36548;DHT22;22551;52.206;4.856;2022-08-19T13:08:57;24.10;99.90
36548;DHT22;22551;52.206;4.856;2022-08-19T13:14:00;24.00;99.90
36548;DHT22;22551;52.206;4.856;2022-08-19T13:19:06;24.20;99.90
36548;DHT22;22551;52.206;4.856;2022-08-19T13:24:08;24.60;99.90
36548;DHT22;22551;52.206;4.856;2022-08-19T13:29:14;24.70;99.90
36548;DHT22;22551;52.206;4.856;2022-08-19T13:34:35;24.80;99.90
36548;DHT22;22551;52.206;4.856;2022-08-19T13:39:38;25.20;99.90
36548;DHT22;22551;52.206;4.856;2022-08-19T13:44:40;25.40;99.90
36548;DHT22;22551;52.206;4.856;2022-08-19T13:49:44;25.30;99.90
36548;DHT22;22551;52.206;4.856;2022-08-19T13:54:46;25.30;99.90
36548;DHT22;22551;52.206;4.856;2022-08-19T13:59:49;25.20;99.90
36548;DHT22;22551;52.206;4.856;2022-08-19T14:04:53;25.00;99.90
36548;DHT22;22551;52.206;4.856;2022-08-19T14:09:55;25.40;99.90
36548;DHT22;22551;52.206;4.856;2022-08-19T14:14:57;25.30;99.90
36548;DHT22;22551;52.206;4.856;2022-08-19T14:20:13;25.40;99.90
36548;DHT22;22551;52.206;4.856;2022-08-19T14:25:19;25.10;99.90
36548;DHT22;22551;52.206;4.856;2022-08-19T14:30:24;25.90;99.90
36548;DHT22;22551;52.206;4.856;2022-08-19T14:35:31;26.00;99.90
36548;DHT22;22551;52.206;4.856;2022-08-19T14:40:35;25.40;99.90
36548;DHT22;22551;52.206;4.856;2022-08-19T14:45:39;25.30;99.90
36548;DHT22;22551;52.206;4.856;2022-08-19T14:50:45;25.10;99.90
36548;DHT22;22551;52.206;4.856;2022-08-19T14:55:49;25.20;99.90
36548;DHT22;22551;52.206;4.856;2022-08-19T15:00:52;25.00;99.90
36548;DHT22;22551;52.206;4.856;2022-08-19T15:05:56;24.60;99.90
36548;DHT22;22551;52.206;4.856;2022-08-19T15:10:59;24.60;99.90
36548;DHT22;22551;52.206;4.856;2022-08-19T15:16:02;25.20;99.90
36548;DHT22;22551;52.206;4.856;2022-08-19T15:21:06;24.90;99.90
36548;DHT22;22551;52.206;4.856;2022-08-19T15:26:09;24.80;99.90
36548;DHT22;22551;52.206;4.856;2022-08-19T15:31:18;24.50;99.90
36548;DHT22;22551;52.206;4.856;2022-08-19T15:36:24;24.60;99.90
36548;DHT22;22551;52.206;4.856;2022-08-19T15:41:41;24.80;99.90
36548;DHT22;22551;52.206;4.856;2022-08-19T15:46:46;24.90;99.90
36548;DHT22;22551;52.206;4.856;2022-08-19T15:51:52;24.60;99.90
36548;DHT22;22551;52.206;4.856;2022-08-19T15:56:57;24.20;99.90
36548;DHT22;22551;52.206;4.856;2022-08-19T16:02:19;24.10;99.90
36548;DHT22;22551;52.206;4.856;2022-08-19T16:07:41;23.70;99.90
36548;DHT22;22551;52.206;4.856;2022-08-19T16:12:43;23.50;99.90
36548;DHT22;22551;52.206;4.856;2022-08-19T16:17:46;23.20;99.90
36548;DHT22;22551;52.206;4.856;2022-08-19T16:22:50;22.90;99.90
36548;DHT22;22551;52.206;4.856;2022-08-19T16:27:54;22.90;99.90
36548;DHT22;22551;52.206;4.856;2022-08-19T16:32:59;23.00;99.90
36548;DHT22;22551;52.206;4.856;2022-08-19T16:38:08;23.00;99.90
36548;DHT22;22551;52.206;4.856;2022-08-19T16:43:11;22.80;99.90
36548;DHT22;22551;52.206;4.856;2022-08-19T16:48:13;22.70;99.90
36548;DHT22;22551;52.206;4.856;2022-08-19T16:53:19;22.70;99.90
36548;DHT22;22551;52.206;4.856;2022-08-19T16:58:27;22.90;99.90
36548;DHT22;22551;52.206;4.856;2022-08-19T17:03:31;22.90;99.90
36548;DHT22;22551;52.206;4.856;2022-08-19T17:08:36;22.70;99.90
36548;DHT22;22551;52.206;4.856;2022-08-19T17:13:41;23.00;99.90
36548;DHT22;22551;52.206;4.856;2022-08-19T17:18:44;23.10;99.90
36548;DHT22;22551;52.206;4.856;2022-08-19T17:23:49;23.10;99.90
36548;DHT22;22551;52.206;4.856;2022-08-19T17:28:54;22.90;99.90
36548;DHT22;22551;52.206;4.856;2022-08-19T17:33:58;22.70;99.90
36548;DHT22;22551;52.206;4.856;2022-08-19T17:39:03;22.60;99.90
36548;DHT22;22551;52.206;4.856;2022-08-19T17:44:06;22.40;99.90
36548;DHT22;22551;52.206;4.856;2022-08-19T17:49:09;22.20;99.90
36548;DHT22;22551;52.206;4.856;2022-08-19T17:54:15;22.20;99.90
36548;DHT22;22551;52.206;4.856;2022-08-19T17:59:19;22.10;99.90
36548;DHT22;22551;52.206;4.856;2022-08-19T18:04:23;22.10;99.90
36548;DHT22;22551;52.206;4.856;2022-08-19T18:09:30;21.90;99.90
36548;DHT22;22551;52.206;4.856;2022-08-19T18:14:37;22.00;99.90
36548;DHT22;22551;52.206;4.856;2022-08-19T18:19:41;21.70;99.90
36548;DHT22;22551;52.206;4.856;2022-08-19T18:24:46;21.70;99.90
36548;DHT22;22551;52.206;4.856;2022-08-19T18:29:49;21.60;99.90
36548;DHT22;22551;52.206;4.856;2022-08-19T18:34:54;21.60;99.90
36548;DHT22;22551;52.206;4.856;2022-08-19T18:39:58;21.40;99.90
36548;DHT22;22551;52.206;4.856;2022-08-19T18:45:17;21.20;99.90
36548;DHT22;22551;52.206;4.856;2022-08-19T18:50:37;21.10;99.90
36548;DHT22;22551;52.206;4.856;2022-08-19T18:55:43;21.00;99.90
36548;DHT22;22551;52.206;4.856;2022-08-19T19:00:49;21.00;99.90
36548;DHT22;22551;52.206;4.856;2022-08-19T19:05:57;20.90;99.90
36548;DHT22;22551;52.206;4.856;2022-08-19T19:11:00;20.90;99.90
36548;DHT22;22551;52.206;4.856;2022-08-19T19:16:06;20.90;99.90
36548;DHT22;22551;52.206;4.856;2022-08-19T19:21:11;20.80;99.90
36548;DHT22;22551;52.206;4.856;2022-08-19T19:26:15;20.80;99.90
36548;DHT22;22551;52.206;4.856;2022-08-19T19:31:18;20.80;99.90
36548;DHT22;22551;52.206;4.856;2022-08-19T19:36:22;20.80;99.90
36548;DHT22;22551;52.206;4.856;2022-08-19T19:41:26;20.70;99.90
36548;DHT22;22551;52.206;4.856;2022-08-19T19:46:30;20.70;99.90
36548;DHT22;22551;52.206;4.856;2022-08-19T19:51:33;20.70;99.90
36548;DHT22;22551;52.206;4.856;2022-08-19T19:56:37;20.70;99.90
36548;DHT22;22551;52.206;4.856;2022-08-19T20:01:46;20.70;99.90
36548;DHT22;22551;52.206;4.856;2022-08-19T20:06:49;20.70;99.90
36548;DHT22;22551;52.206;4.856;2022-08-19T20:11:55;20.60;99.90
36548;DHT22;22551;52.206;4.856;2022-08-19T20:17:00;20.60;99.90
36548;DHT22;22551;52.206;4.856;2022-08-19T20:22:04;20.50;99.90
36548;DHT22;22551;52.206;4.856;2022-08-19T20:27:08;20.60;99.90
36548;DHT22;22551;52.206;4.856;2022-08-19T20:32:11;20.60;99.90
36548;DHT22;22551;52.206;4.856;2022-08-19T20:37:14;20.50;99.90
36548;DHT22;22551;52.206;4.856;2022-08-19T20:42:20;20.50;99.90
36548;DHT22;22551;52.206;4.856;2022-08-19T20:47:23;20.50;99.90
36548;DHT22;22551;52.206;4.856;2022-08-19T20:52:25;20.50;99.90
36548;DHT22;22551;52.206;4.856;2022-08-19T20:57:29;20.50;99.90
36548;DHT22;22551;52.206;4.856;2022-08-19T21:02:32;20.40;99.90
36548;DHT22;22551;52.206;4.856;2022-08-19T21:07:34;20.30;99.90
36548;DHT22;22551;52.206;4.856;2022-08-19T21:12:38;20.30;99.90
36548;DHT22;22551;52.206;4.856;2022-08-19T21:17:41;20.30;99.90
36548;DHT22;22551;52.206;4.856;2022-08-19T21:22:48;20.20;99.90
36548;DHT22;22551;52.206;4.856;2022-08-19T21:27:52;20.10;99.90
36548;DHT22;22551;52.206;4.856;2022-08-19T21:32:54;20.00;99.90
36548;DHT22;22551;52.206;4.856;2022-08-19T21:37:57;19.90;99.90
36548;DHT22;22551;52.206;4.856;2022-08-19T21:43:00;19.90;99.90
36548;DHT22;22551;52.206;4.856;2022-08-19T21:48:03;19.90;99.90
36548;DHT22;22551;52.206;4.856;2022-08-19T21:53:05;20.00;99.90
36548;DHT22;22551;52.206;4.856;2022-08-19T21:58:09;20.00;99.90
36548;DHT22;22551;52.206;4.856;2022-08-19T22:03:12;20.10;99.90
36548;DHT22;22551;52.206;4.856;2022-08-19T22:08:14;20.10;99.90
36548;DHT22;22551;52.206;4.856;2022-08-19T22:13:20;20.10;99.90
36548;DHT22;22551;52.206;4.856;2022-08-19T22:18:22;20.10;99.90
36548;DHT22;22551;52.206;4.856;2022-08-19T22:23:24;20.10;99.90
36548;DHT22;22551;52.206;4.856;2022-08-19T22:28:28;20.00;99.90
36548;DHT22;22551;52.206;4.856;2022-08-19T22:33:30;20.00;99.90
36548;DHT22;22551;52.206;4.856;2022-08-19T22:38:33;20.00;99.90
36548;DHT22;22551;52.206;4.856;2022-08-19T22:43:37;20.00;99.90
36548;DHT22;22551;52.206;4.856;2022-08-19T22:48:39;20.10;99.90
36548;DHT22;22551;52.206;4.856;2022-08-19T22:53:43;20.00;99.90
36548;DHT22;22551;52.206;4.856;2022-08-19T22:58:49;20.00;99.90
36548;DHT22;22551;52.206;4.856;2022-08-19T23:03:51;20.00;99.90
36548;DHT22;22551;52.206;4.856;2022-08-19T23:08:54;19.90;99.90
36548;DHT22;22551;52.206;4.856;2022-08-19T23:13:58;19.80;99.90
36548;DHT22;22551;52.206;4.856;2022-08-19T23:19:00;19.80;99.90
36548;DHT22;22551;52.206;4.856;2022-08-19T23:24:03;19.60;99.90
36548;DHT22;22551;52.206;4.856;2022-08-19T23:29:07;19.70;99.90
36548;DHT22;22551;52.206;4.856;2022-08-19T23:34:27;19.60;99.90
36548;DHT22;22551;52.206;4.856;2022-08-19T23:39:29;19.50;99.90
36548;DHT22;22551;52.206;4.856;2022-08-19T23:44:33;19.50;99.90
36548;DHT22;22551;52.206;4.856;2022-08-19T23:49:35;19.50;99.90
36548;DHT22;22551;52.206;4.856;2022-08-19T23:54:37;19.50;99.90
36548;DHT22;22551;52.206;4.856;2022-08-19T23:59:41;19.50;99.90
